Time;durP1;ratioP1;P1;durP2;ratioP2;P2;SDS_P1;SDS_P2;PMS_P1;PMS_P2;Temp;Humidity;BMP_temperature;BMP_pressure;BME280_temperature;BME280_humidity;BME280_pressure;Samples;Min_cycle;Max_cycle;Signal;HPM_P1;HPM_P2
2023/08/11 00:00:59;;;;;;;7.72;4.07;;;;;;;;;;4985521;28;20034;-77
2023/08/11 00:03:24;;;;;;;7.47;4.22;;;;;;;;;;4976301;28;20139;-77
2023/08/11 00:05:50;;;;;;;10.05;4.50;;;;;;;;;;5001660;28;20057;-77
2023/08/11 00:08:16;;;;;;;6.90;4.00;;;;;;;;;;4984672;28;20065;-78
2023/08/11 00:10:41;;;;;;;8.68;4.15;;;;;;;;;;4959272;28;20386;-78
2023/08/11 00:13:08;;;;;;;8.13;4.68;;;;;;;;;;4986488;28;20042;-78
2023/08/11 00:15:39;;;;;;;8.57;3.88;;;;;;;;;;4987451;28;20052;-78
2023/08/11 00:18:05;;;;;;;7.13;4.07;;;;;;;;;;4998728;28;20059;-78
2023/08/11 00:20:30;;;;;;;7.97;3.85;;;;;;;;;;4984926;28;20402;-78
2023/08/11 00:22:56;;;;;;;8.07;3.95;;;;;;;;;;4994461;28;20072;-78
2023/08/11 00:25:25;;;;;;;8.63;4.00;;;;;;;;;;4979942;28;20520;-78
2023/08/11 00:27:51;;;;;;;7.60;4.00;;;;;;;;;;4955017;28;20046;-78
2023/08/11 00:30:17;;;;;;;6.53;3.92;;;;;;;;;;4972158;28;20321;-78
2023/08/11 00:32:43;;;;;;;9.40;4.30;;;;;;;;;;4960923;28;20038;-77
2023/08/11 00:35:08;;;;;;;8.85;4.30;;;;;;;;;;4966161;28;20501;-77
2023/08/11 00:37:34;;;;;;;6.13;4.00;;;;;;;;;;4970391;28;20034;-78
2023/08/11 00:40:00;;;;;;;8.13;3.63;;;;;;;;;;4976226;28;20502;-78
2023/08/11 00:42:33;;;;;;;9.45;4.07;;;;;;;;;;4966418;28;20589;-77
2023/08/11 00:44:59;;;;;;;6.65;3.97;;;;;;;;;;4975146;28;20042;-78
2023/08/11 00:47:25;;;;;;;7.18;4.13;;;;;;;;;;4964641;28;20035;-77
2023/08/11 00:49:51;;;;;;;6.65;3.85;;;;;;;;;;4977281;28;20046;-77
2023/08/11 00:52:18;;;;;;;7.70;3.75;;;;;;;;;;4982404;28;20092;-78
2023/08/11 00:54:43;;;;;;;7.47;3.95;;;;;;;;;;4972227;28;20037;-78
2023/08/11 00:57:08;;;;;;;6.88;3.80;;;;;;;;;;4972199;28;20034;-77
2023/08/11 00:59:34;;;;;;;7.10;3.70;;;;;;;;;;4992453;28;20509;-78
2023/08/11 01:01:59;;;;;;;8.63;3.80;;;;;;;;;;4986029;28;20034;-78
2023/08/11 01:04:25;;;;;;;7.30;4.55;;;;;;;;;;4959656;28;20320;-77
2023/08/11 01:06:50;;;;;;;8.55;4.13;;;;;;;;;;4975864;28;20077;-78
2023/08/11 01:09:37;;;;;;;6.03;3.85;;;;;;;;;;4974466;28;20450;-77
2023/08/11 01:12:16;;;;;;;8.30;4.25;;;;;;;;;;4987662;28;20048;-78
2023/08/11 01:15:06;;;;;;;6.53;3.70;;;;;;;;;;4983684;28;20062;-77
2023/08/11 01:17:32;;;;;;;6.75;3.97;;;;;;;;;;4978495;28;20041;-77
2023/08/11 01:19:58;;;;;;;10.57;4.05;;;;;;;;;;4993902;28;20036;-77
2023/08/11 01:22:30;;;;;;;9.77;4.50;;;;;;;;;;5000482;28;20046;-77
2023/08/11 01:24:56;;;;;;;7.50;3.72;;;;;;;;;;4984151;28;20038;-78
2023/08/11 01:27:21;;;;;;;7.75;3.88;;;;;;;;;;4984482;28;20030;-77
2023/08/11 01:29:47;;;;;;;6.45;4.10;;;;;;;;;;4967967;28;20042;-78
2023/08/11 01:32:12;;;;;;;10.68;4.20;;;;;;;;;;4994631;28;20417;-78
2023/08/11 01:34:38;;;;;;;9.20;4.25;;;;;;;;;;5005218;28;20425;-77
2023/08/11 01:37:03;;;;;;;7.53;4.07;;;;;;;;;;4961248;28;20042;-78
2023/08/11 01:39:30;;;;;;;8.55;4.20;;;;;;;;;;4975146;28;20034;-78
2023/08/11 01:41:55;;;;;;;6.88;3.88;;;;;;;;;;4993117;28;20592;-77
2023/08/11 01:44:22;;;;;;;9.15;4.03;;;;;;;;;;4980728;28;20034;-78
2023/08/11 01:46:52;;;;;;;7.80;4.28;;;;;;;;;;4990492;28;20606;-78
2023/08/11 01:49:18;;;;;;;6.20;3.95;;;;;;;;;;4995947;28;20038;-78
2023/08/11 01:51:43;;;;;;;8.27;3.90;;;;;;;;;;4979277;28;20387;-78
2023/08/11 01:54:13;;;;;;;8.68;4.38;;;;;;;;;;4990632;28;20052;-78
2023/08/11 01:56:39;;;;;;;6.47;4.13;;;;;;;;;;4979185;28;20029;-77
2023/08/11 01:59:11;;;;;;;6.25;3.80;;;;;;;;;;4994756;28;20486;-78
2023/08/11 02:01:40;;;;;;;8.45;4.25;;;;;;;;;;4978801;28;20074;-78
2023/08/11 02:04:05;;;;;;;6.50;4.25;;;;;;;;;;4977127;28;20397;-77
2023/08/11 02:06:31;;;;;;;8.82;4.32;;;;;;;;;;4990767;28;20084;-77
2023/08/11 02:08:57;;;;;;;10.43;4.93;;;;;;;;;;4980701;28;20394;-77
2023/08/11 02:11:22;;;;;;;9.82;4.57;;;;;;;;;;4985716;28;20084;-77
2023/08/11 02:13:48;;;;;;;8.95;4.40;;;;;;;;;;4993681;28;20787;-77
2023/08/11 02:16:13;;;;;;;8.60;4.63;;;;;;;;;;4995399;28;20445;-77
2023/08/11 02:18:39;;;;;;;7.43;4.47;;;;;;;;;;4991487;28;20027;-77
2023/08/11 02:21:07;;;;;;;7.75;4.43;;;;;;;;;;4993451;28;20455;-77
2023/08/11 02:23:32;;;;;;;9.20;4.25;;;;;;;;;;4993774;28;20051;-77
2023/08/11 02:25:58;;;;;;;7.20;3.95;;;;;;;;;;4990217;28;20125;-77
2023/08/11 02:28:23;;;;;;;7.40;4.38;;;;;;;;;;4984898;28;20050;-77
2023/08/11 02:30:48;;;;;;;6.57;4.03;;;;;;;;;;4997941;28;20053;-77
2023/08/11 02:33:18;;;;;;;9.77;4.20;;;;;;;;;;4976942;28;20037;-77
2023/08/11 02:35:44;;;;;;;7.20;4.22;;;;;;;;;;4970375;28;20035;-77
2023/08/11 02:38:09;;;;;;;7.40;4.25;;;;;;;;;;5009367;28;20158;-77
2023/08/11 02:40:35;;;;;;;7.68;4.13;;;;;;;;;;4992498;28;20033;-77
2023/08/11 02:43:04;;;;;;;6.93;3.95;;;;;;;;;;4973329;28;20039;-77
2023/08/11 02:45:30;;;;;;;6.80;4.40;;;;;;;;;;4948676;28;20073;-78
2023/08/11 02:47:56;;;;;;;6.75;4.00;;;;;;;;;;4976088;28;20690;-78
2023/08/11 02:50:22;;;;;;;7.80;4.38;;;;;;;;;;4983990;28;20038;-77
2023/08/11 02:52:48;;;;;;;8.65;4.63;;;;;;;;;;4987440;28;20046;-77
2023/08/11 02:55:13;;;;;;;6.40;3.85;;;;;;;;;;4980259;28;20422;-77
2023/08/11 02:57:39;;;;;;;7.22;4.30;;;;;;;;;;4994078;28;20367;-79
2023/08/11 03:00:14;;;;;;;6.57;4.25;;;;;;;;;;4994177;28;20470;-79
2023/08/11 03:02:41;;;;;;;6.85;4.40;;;;;;;;;;4993060;28;20042;-77
2023/08/11 03:05:07;;;;;;;7.57;4.50;;;;;;;;;;4987155;28;20054;-77
2023/08/11 03:07:42;;;;;;;10.27;6.13;;;;;;;;;;4977190;28;20038;-77
2023/08/11 03:10:28;;;;;;;7.63;4.43;;;;;;;;;;4970630;28;20042;-77
2023/08/11 03:12:53;;;;;;;6.43;3.95;;;;;;;;;;4987862;28;20046;-77
2023/08/11 03:15:19;;;;;;;6.38;4.03;;;;;;;;;;4986664;28;20044;-77
2023/08/11 03:17:45;;;;;;;8.40;4.20;;;;;;;;;;4977728;28;20065;-77
2023/08/11 03:20:18;;;;;;;6.97;4.38;;;;;;;;;;4986965;28;20038;-77
2023/08/11 03:22:46;;;;;;;9.15;4.32;;;;;;;;;;4967651;28;20034;-77
2023/08/11 03:25:12;;;;;;;8.23;4.13;;;;;;;;;;4986660;28;20042;-77
2023/08/11 03:27:41;;;;;;;9.25;4.40;;;;;;;;;;5002902;28;20611;-77
2023/08/11 03:30:08;;;;;;;6.63;4.28;;;;;;;;;;4985725;28;20424;-77
2023/08/11 03:32:41;;;;;;;10.80;4.43;;;;;;;;;;4970413;28;20044;-77
2023/08/11 03:35:07;;;;;;;9.50;4.60;;;;;;;;;;4985289;28;20446;-77
2023/08/11 03:37:33;;;;;;;7.43;3.80;;;;;;;;;;4987127;28;20232;-77
2023/08/11 03:39:59;;;;;;;7.63;4.32;;;;;;;;;;4994908;28;20037;-77
2023/08/11 03:42:24;;;;;;;7.97;4.68;;;;;;;;;;4995015;28;20061;-78
2023/08/11 03:44:51;;;;;;;8.00;4.13;;;;;;;;;;5003734;28;20128;-78
2023/08/11 03:47:17;;;;;;;6.60;3.93;;;;;;;;;;4976114;28;20104;-78
2023/08/11 03:49:42;;;;;;;7.75;4.35;;;;;;;;;;4974767;28;20052;-78
2023/08/11 03:52:08;;;;;;;8.05;4.38;;;;;;;;;;4995216;28;20477;-78
2023/08/11 03:54:33;;;;;;;6.85;4.28;;;;;;;;;;4993639;28;20505;-77
2023/08/11 03:56:59;;;;;;;6.25;4.18;;;;;;;;;;4977956;28;20038;-77
2023/08/11 03:59:24;;;;;;;9.20;4.78;;;;;;;;;;4971549;28;20413;-77
2023/08/11 04:01:50;;;;;;;9.27;4.25;;;;;;;;;;4978360;28;20034;-78
2023/08/11 04:04:21;;;;;;;7.97;4.38;;;;;;;;;;4975066;28;20487;-78
2023/08/11 04:06:46;;;;;;;6.75;4.38;;;;;;;;;;4978231;28;20034;-78
2023/08/11 04:09:12;;;;;;;6.90;4.53;;;;;;;;;;4997062;28;20026;-78
2023/08/11 04:11:38;;;;;;;7.90;4.15;;;;;;;;;;4991637;28;20096;-77
2023/08/11 04:14:03;;;;;;;7.53;4.20;;;;;;;;;;4962137;28;20038;-77
2023/08/11 04:16:29;;;;;;;9.77;4.60;;;;;;;;;;4978847;28;20038;-77
2023/08/11 04:18:54;;;;;;;7.18;4.00;;;;;;;;;;4981902;28;20034;-77
2023/08/11 04:21:19;;;;;;;7.38;4.60;;;;;;;;;;4978205;28;20054;-78
2023/08/11 04:23:45;;;;;;;9.32;4.22;;;;;;;;;;4953428;28;20045;-78
2023/08/11 04:26:10;;;;;;;7.93;4.22;;;;;;;;;;4995320;28;20152;-78
2023/08/11 04:28:38;;;;;;;7.88;4.28;;;;;;;;;;4978294;28;20038;-78
2023/08/11 04:31:05;;;;;;;8.35;4.18;;;;;;;;;;4991846;28;20047;-78
2023/08/11 04:33:32;;;;;;;6.27;3.90;;;;;;;;;;4994639;28;20049;-78
2023/08/11 04:35:57;;;;;;;7.03;3.90;;;;;;;;;;4993386;28;20042;-78
2023/08/11 04:38:23;;;;;;;7.60;4.53;;;;;;;;;;4976629;28;20034;-78
2023/08/11 04:40:52;;;;;;;7.18;4.03;;;;;;;;;;4968033;28;20105;-78
2023/08/11 04:43:19;;;;;;;8.27;4.28;;;;;;;;;;4996394;28;20026;-78
2023/08/11 04:45:49;;;;;;;10.55;4.88;;;;;;;;;;4981066;28;20120;-78
2023/08/11 04:48:14;;;;;;;7.47;4.65;;;;;;;;;;4975610;28;20061;-78
2023/08/11 04:50:40;;;;;;;9.27;4.15;;;;;;;;;;4969007;28;20501;-78
2023/08/11 04:53:08;;;;;;;7.22;4.20;;;;;;;;;;4978170;28;20061;-78
2023/08/11 04:55:34;;;;;;;8.93;4.63;;;;;;;;;;4968377;28;20489;-78
2023/08/11 04:58:00;;;;;;;10.45;4.50;;;;;;;;;;4976126;28;20385;-78
2023/08/11 05:00:26;;;;;;;8.02;4.63;;;;;;;;;;4985056;28;20038;-79
2023/08/11 05:02:52;;;;;;;10.75;4.93;;;;;;;;;;4979041;28;20037;-78
2023/08/11 05:05:19;;;;;;;10.40;4.57;;;;;;;;;;4999803;28;20061;-79
2023/08/11 05:07:45;;;;;;;9.82;4.40;;;;;;;;;;4968090;28;20572;-78
2023/08/11 05:10:13;;;;;;;8.98;4.55;;;;;;;;;;4969816;28;20084;-78
2023/08/11 05:12:39;;;;;;;12.90;4.30;;;;;;;;;;4959092;28;20066;-78
2023/08/11 05:15:05;;;;;;;7.63;4.10;;;;;;;;;;4950744;28;20126;-79
2023/08/11 05:17:31;;;;;;;7.85;3.88;;;;;;;;;;4990329;28;20034;-79
2023/08/11 05:19:57;;;;;;;6.30;4.13;;;;;;;;;;4986872;28;20056;-78
2023/08/11 05:22:23;;;;;;;7.72;3.80;;;;;;;;;;4990757;28;20033;-79
2023/08/11 05:24:50;;;;;;;9.18;4.05;;;;;;;;;;4997528;28;20037;-79
2023/08/11 05:27:16;;;;;;;8.65;4.03;;;;;;;;;;4962085;28;20042;-78
2023/08/11 05:29:47;;;;;;;7.57;3.70;;;;;;;;;;4980512;28;20101;-79
2023/08/11 05:32:12;;;;;;;7.60;3.80;;;;;;;;;;4979947;28;20316;-79
2023/08/11 05:34:38;;;;;;;8.35;3.70;;;;;;;;;;4967009;28;20057;-79
2023/08/11 05:37:05;;;;;;;11.57;4.30;;;;;;;;;;4964642;28;20031;-79
2023/08/11 05:39:30;;;;;;;6.82;3.47;;;;;;;;;;4985076;28;20026;-79
2023/08/11 05:41:56;;;;;;;9.77;3.63;;;;;;;;;;4996554;28;20099;-77
2023/08/11 05:44:22;;;;;;;9.23;3.40;;;;;;;;;;4991723;28;20049;-77
2023/08/11 05:46:52;;;;;;;7.57;3.63;;;;;;;;;;4994069;28;20054;-78
2023/08/11 05:49:18;;;;;;;14.88;4.32;;;;;;;;;;4995405;28;20425;-79
2023/08/11 05:51:43;;;;;;;9.10;3.70;;;;;;;;;;4990105;28;20038;-79
2023/08/11 05:54:09;;;;;;;6.95;3.55;;;;;;;;;;4999147;28;20458;-78
2023/08/11 05:56:36;;;;;;;10.70;3.20;;;;;;;;;;5002164;28;20056;-78
2023/08/11 05:59:02;;;;;;;11.13;3.50;;;;;;;;;;4990230;28;20034;-78
2023/08/11 06:01:27;;;;;;;6.22;3.20;;;;;;;;;;4990241;28;20077;-79
2023/08/11 06:03:53;;;;;;;7.50;3.33;;;;;;;;;;4978966;28;20077;-78
2023/08/11 06:06:21;;;;;;;7.28;3.08;;;;;;;;;;4984810;28;20153;-78
2023/08/11 06:08:46;;;;;;;10.68;3.28;;;;;;;;;;4996371;28;20191;-78
2023/08/11 06:11:12;;;;;;;7.45;2.85;;;;;;;;;;4989492;28;20034;-78
2023/08/11 06:13:37;;;;;;;8.00;3.03;;;;;;;;;;4995213;28;20030;-78
2023/08/11 06:16:02;;;;;;;8.98;3.10;;;;;;;;;;4984254;28;20030;-78
2023/08/11 06:18:28;;;;;;;10.70;3.65;;;;;;;;;;4993488;28;20040;-78
2023/08/11 06:20:53;;;;;;;5.18;3.00;;;;;;;;;;4975906;28;20489;-78
2023/08/11 06:23:19;;;;;;;7.32;2.92;;;;;;;;;;5004749;28;20037;-78
2023/08/11 06:25:44;;;;;;;7.70;2.92;;;;;;;;;;4993520;28;20030;-78
2023/08/11 06:28:09;;;;;;;5.72;2.50;;;;;;;;;;4981472;28;20037;-78
2023/08/11 06:30:35;;;;;;;8.93;3.40;;;;;;;;;;4982862;28;20038;-78
2023/08/11 06:33:00;;;;;;;7.32;2.88;;;;;;;;;;4995326;28;20064;-78
2023/08/11 06:35:26;;;;;;;7.25;2.72;;;;;;;;;;4961546;28;20165;-78
2023/08/11 06:37:52;;;;;;;6.57;2.75;;;;;;;;;;5002756;28;20039;-78
2023/08/11 06:40:17;;;;;;;6.95;3.10;;;;;;;;;;4959978;28;20076;-78
2023/08/11 06:42:46;;;;;;;8.38;2.92;;;;;;;;;;4994122;28;20092;-78
2023/08/11 06:45:11;;;;;;;6.13;2.97;;;;;;;;;;4982967;28;20085;-78
2023/08/11 06:47:37;;;;;;;5.55;2.72;;;;;;;;;;4993635;28;20074;-77
2023/08/11 06:50:05;;;;;;;7.20;3.08;;;;;;;;;;4988150;28;20038;-78
2023/08/11 06:52:31;;;;;;;7.57;2.92;;;;;;;;;;4980337;28;20505;-78
2023/08/11 06:54:56;;;;;;;4.60;2.58;;;;;;;;;;4997905;28;20060;-78
2023/08/11 06:57:43;;;;;;;5.15;2.80;;;;;;;;;;4998329;28;20026;-78
2023/08/11 07:00:09;;;;;;;6.03;2.88;;;;;;;;;;5013736;28;20040;-78
2023/08/11 07:02:35;;;;;;;5.30;2.80;;;;;;;;;;5004601;28;20457;-78
2023/08/11 07:05:01;;;;;;;6.68;2.80;;;;;;;;;;4997579;28;20413;-78
2023/08/11 07:07:27;;;;;;;5.82;2.90;;;;;;;;;;5004900;28;20072;-78
2023/08/11 07:10:03;;;;;;;4.95;2.38;;;;;;;;;;4977046;28;20072;-78
2023/08/11 07:12:28;;;;;;;5.07;2.90;;;;;;;;;;5017260;28;20525;-77
2023/08/11 07:14:54;;;;;;;7.13;2.80;;;;;;;;;;4997816;28;20041;-77
2023/08/11 07:17:19;;;;;;;5.43;2.47;;;;;;;;;;4998329;28;20046;-77
2023/08/11 07:19:47;;;;;;;6.22;2.70;;;;;;;;;;4981719;28;20096;-77
2023/08/11 07:22:12;;;;;;;7.78;2.50;;;;;;;;;;5002085;28;20045;-78
2023/08/11 07:24:38;;;;;;;6.68;2.40;;;;;;;;;;5001751;28;20027;-78
2023/08/11 07:27:03;;;;;;;7.38;2.70;;;;;;;;;;4993654;28;20034;-77
2023/08/11 07:29:31;;;;;;;3.92;2.08;;;;;;;;;;5010764;28;20044;-77
2023/08/11 07:31:57;;;;;;;7.53;2.47;;;;;;;;;;4995751;28;20033;-77
2023/08/11 07:34:23;;;;;;;6.25;1.80;;;;;;;;;;4982086;28;20045;-78
2023/08/11 07:36:48;;;;;;;5.85;2.13;;;;;;;;;;5010484;28;20033;-79
2023/08/11 07:39:13;;;;;;;7.82;1.92;;;;;;;;;;4976324;28;20027;-77
2023/08/11 07:41:39;;;;;;;7.30;1.90;;;;;;;;;;5006629;28;20034;-78
2023/08/11 07:44:04;;;;;;;6.68;1.90;;;;;;;;;;4992730;28;20034;-78
2023/08/11 07:46:32;;;;;;;4.75;1.70;;;;;;;;;;4988183;28;20360;-78
2023/08/11 07:48:58;;;;;;;5.18;1.50;;;;;;;;;;5002006;28;20038;-79
2023/08/11 07:51:23;;;;;;;4.80;1.55;;;;;;;;;;5001644;28;20210;-79
2023/08/11 07:53:49;;;;;;;5.15;1.52;;;;;;;;;;4995063;28;20131;-79
2023/08/11 07:56:15;;;;;;;4.40;1.73;;;;;;;;;;4977063;28;20043;-79
2023/08/11 07:58:40;;;;;;;5.68;1.60;;;;;;;;;;5002377;28;20029;-79
2023/08/11 08:01:08;;;;;;;5.38;1.75;;;;;;;;;;4984898;28;20038;-78
2023/08/11 08:03:34;;;;;;;4.78;1.55;;;;;;;;;;4983309;28;20479;-79
2023/08/11 08:06:00;;;;;;;3.90;1.40;;;;;;;;;;4985515;28;20042;-80
2023/08/11 08:08:26;;;;;;;5.43;1.40;;;;;;;;;;4990562;28;20410;-77
2023/08/11 08:10:51;;;;;;;4.57;1.42;;;;;;;;;;4979550;28;20058;-79
2023/08/11 08:16:10;;;;;;;2.70;1.02;;;;;;;;;;4985529;28;20046;-77
2023/08/11 08:18:37;;;;;;;4.93;1.38;;;;;;;;;;4981693;28;20401;-78
2023/08/11 08:21:02;;;;;;;4.67;1.43;;;;;;;;;;4984135;28;20034;-78
2023/08/11 08:23:27;;;;;;;4.10;1.15;;;;;;;;;;4977179;28;20054;-78
2023/08/11 08:25:53;;;;;;;4.07;1.10;;;;;;;;;;4959295;28;20425;-78
2023/08/11 08:28:18;;;;;;;3.35;1.20;;;;;;;;;;4995858;28;20053;-78
2023/08/11 08:30:44;;;;;;;4.38;1.20;;;;;;;;;;4993486;28;20073;-77
2023/08/11 08:33:09;;;;;;;3.80;1.00;;;;;;;;;;4992400;28;20034;-79
2023/08/11 08:35:36;;;;;;;4.40;1.05;;;;;;;;;;5000727;28;20138;-78
2023/08/11 08:38:01;;;;;;;3.65;1.30;;;;;;;;;;4980030;28;20046;-78
2023/08/11 08:40:27;;;;;;;3.33;1.10;;;;;;;;;;5006908;28;20539;-78
2023/08/11 08:42:53;;;;;;;4.07;1.20;;;;;;;;;;4975127;28;20393;-78
2023/08/11 08:45:25;;;;;;;3.13;0.90;;;;;;;;;;4981999;28;20029;-80
2023/08/11 08:47:52;;;;;;;4.05;1.08;;;;;;;;;;4976085;28;20046;-79
2023/08/11 08:50:18;;;;;;;4.55;1.10;;;;;;;;;;4955733;28;20793;-80
2023/08/11 08:52:43;;;;;;;4.53;0.98;;;;;;;;;;4979378;28;20084;-79
2023/08/11 08:55:09;;;;;;;3.47;1.00;;;;;;;;;;4976968;28;20034;-80
2023/08/11 08:57:35;;;;;;;6.63;1.00;;;;;;;;;;4961936;28;20811;-79
2023/08/11 09:00:00;;;;;;;3.85;1.05;;;;;;;;;;4982269;28;20042;-80
2023/08/11 09:02:28;;;;;;;4.05;0.70;;;;;;;;;;4959085;28;20069;-80
2023/08/11 09:04:54;;;;;;;3.30;0.85;;;;;;;;;;4995610;28;20498;-80
2023/08/11 09:07:20;;;;;;;4.30;0.80;;;;;;;;;;4999004;28;20064;-79
2023/08/11 09:09:46;;;;;;;2.83;0.70;;;;;;;;;;4994884;28;20046;-80
2023/08/11 09:12:13;;;;;;;3.22;0.90;;;;;;;;;;4993733;28;20880;-79
2023/08/11 09:14:41;;;;;;;2.22;0.60;;;;;;;;;;4984002;28;20042;-80
2023/08/11 09:17:07;;;;;;;3.80;0.70;;;;;;;;;;4984630;28;20034;-79
2023/08/11 09:19:33;;;;;;;5.03;0.83;;;;;;;;;;4998133;28;20045;-80
2023/08/11 09:21:58;;;;;;;1.83;0.60;;;;;;;;;;4979315;28;20038;-80
2023/08/11 09:24:24;;;;;;;2.80;0.80;;;;;;;;;;4995524;28;20045;-80
2023/08/11 09:26:49;;;;;;;3.03;0.77;;;;;;;;;;4993391;28;20052;-80
2023/08/11 09:29:18;;;;;;;3.00;0.70;;;;;;;;;;4990932;28;20037;-80
2023/08/11 09:31:48;;;;;;;3.13;0.70;;;;;;;;;;4992640;28;20531;-80
2023/08/11 09:34:16;;;;;;;3.05;0.63;;;;;;;;;;5000208;28;20401;-80
2023/08/11 09:36:42;;;;;;;3.90;0.75;;;;;;;;;;4994110;28;20077;-80
2023/08/11 09:39:11;;;;;;;2.57;0.60;;;;;;;;;;5005755;28;20040;-80
2023/08/11 09:41:45;;;;;;;3.17;0.85;;;;;;;;;;4991867;28;20544;-79
2023/08/11 09:44:17;;;;;;;2.45;0.50;;;;;;;;;;4977960;28;20038;-78
2023/08/11 09:46:43;;;;;;;2.55;0.50;;;;;;;;;;4990991;28;20434;-79
2023/08/11 09:49:09;;;;;;;1.75;0.50;;;;;;;;;;4980704;28;20124;-78
2023/08/11 09:51:38;;;;;;;4.07;0.55;;;;;;;;;;4980411;28;20197;-79
2023/08/11 09:54:06;;;;;;;5.03;0.80;;;;;;;;;;4981609;28;20775;-79
2023/08/11 09:56:37;;;;;;;2.42;0.60;;;;;;;;;;4990259;28;20043;-79
2023/08/11 09:59:04;;;;;;;3.80;0.80;;;;;;;;;;4967102;28;20118;-78
2023/08/11 10:01:32;;;;;;;2.50;0.63;;;;;;;;;;4981380;28;20038;-78
2023/08/11 10:04:03;;;;;;;2.92;0.50;;;;;;;;;;4985458;28;20429;-79
2023/08/11 10:06:31;;;;;;;3.00;0.50;;;;;;;;;;4988358;28;20115;-79
2023/08/11 10:09:00;;;;;;;2.15;0.52;;;;;;;;;;4966996;28;20510;-78
2023/08/11 10:11:28;;;;;;;2.45;0.43;;;;;;;;;;4961456;28;20039;-79
2023/08/11 10:13:55;;;;;;;1.38;0.35;;;;;;;;;;4958818;28;20055;-79
2023/08/11 10:16:21;;;;;;;3.80;0.57;;;;;;;;;;4951589;28;20521;-79
2023/08/11 10:18:46;;;;;;;2.85;0.50;;;;;;;;;;4959452;28;20043;-79
2023/08/11 10:21:12;;;;;;;1.83;0.50;;;;;;;;;;4967679;28;20037;-79
2023/08/11 10:23:38;;;;;;;2.70;0.60;;;;;;;;;;4990462;28;20462;-79
2023/08/11 10:26:03;;;;;;;2.40;0.50;;;;;;;;;;4969409;28;20104;-78
2023/08/11 10:28:29;;;;;;;3.80;0.67;;;;;;;;;;4956996;28;20435;-79
2023/08/11 10:31:02;;;;;;;2.00;0.40;;;;;;;;;;4966898;28;20088;-79
2023/08/11 10:33:31;;;;;;;1.25;0.50;;;;;;;;;;4955498;28;20595;-80
2023/08/11 10:35:58;;;;;;;2.30;0.60;;;;;;;;;;4980820;28;20035;-80
2023/08/11 10:38:32;;;;;;;4.88;0.50;;;;;;;;;;4960927;28;20039;-78
2023/08/11 10:41:14;;;;;;;2.58;0.68;;;;;;;;;;4977651;28;20066;-78
2023/08/11 10:43:43;;;;;;;2.65;0.60;;;;;;;;;;4958016;28;20046;-78
2023/08/11 10:46:31;;;;;;;3.17;0.70;;;;;;;;;;4947504;28;20319;-78
2023/08/11 10:49:20;;;;;;;3.35;0.80;;;;;;;;;;4967435;28;20039;-79
2023/08/11 10:51:46;;;;;;;3.28;0.68;;;;;;;;;;4982766;28;20064;-79
2023/08/11 10:54:18;;;;;;;1.65;0.50;;;;;;;;;;4983017;28;20026;-79
2023/08/11 10:56:45;;;;;;;5.15;0.63;;;;;;;;;;4994948;28;20034;-80
2023/08/11 10:59:16;;;;;;;5.13;0.95;;;;;;;;;;4982964;28;20037;-80
2023/08/11 11:01:48;;;;;;;3.92;0.73;;;;;;;;;;4995486;28;20046;-80
2023/08/11 11:04:14;;;;;;;2.88;0.63;;;;;;;;;;4997007;28;20638;-80
2023/08/11 11:06:41;;;;;;;3.42;0.70;;;;;;;;;;4984374;28;20033;-80
2023/08/11 11:09:13;;;;;;;4.00;0.70;;;;;;;;;;5008255;28;20038;-79
2023/08/11 11:11:39;;;;;;;3.38;0.70;;;;;;;;;;4980832;28;20433;-79
2023/08/11 11:14:08;;;;;;;2.40;0.65;;;;;;;;;;4986977;28;20041;-79
2023/08/11 11:16:34;;;;;;;2.03;0.80;;;;;;;;;;4974890;28;20389;-79
2023/08/11 11:19:01;;;;;;;2.50;0.70;;;;;;;;;;4973164;28;20509;-80
2023/08/11 11:21:26;;;;;;;2.13;0.53;;;;;;;;;;4962418;28;20043;-80
2023/08/11 11:23:51;;;;;;;2.35;0.60;;;;;;;;;;4960581;28;20296;-80
2023/08/11 11:26:22;;;;;;;1.43;0.60;;;;;;;;;;4975592;28;20848;-80
2023/08/11 11:28:47;;;;;;;2.13;0.50;;;;;;;;;;4966729;28;20126;-80
2023/08/11 11:31:14;;;;;;;1.33;0.43;;;;;;;;;;4981470;28;20045;-79
2023/08/11 11:33:40;;;;;;;1.33;0.40;;;;;;;;;;4973479;28;20966;-80
2023/08/11 11:36:06;;;;;;;2.20;0.60;;;;;;;;;;4965966;28;20062;-80
2023/08/11 11:38:32;;;;;;;4.95;0.88;;;;;;;;;;4983748;28;20095;-80
2023/08/11 11:40:57;;;;;;;2.47;0.53;;;;;;;;;;4995998;28;20042;-80
2023/08/11 11:43:23;;;;;;;2.07;0.57;;;;;;;;;;5001901;28;20034;-80
2023/08/11 11:45:52;;;;;;;2.37;0.57;;;;;;;;;;4997323;28;20045;-80
2023/08/11 11:48:17;;;;;;;3.22;0.50;;;;;;;;;;4993802;28;20283;-80
2023/08/11 11:50:42;;;;;;;2.80;0.47;;;;;;;;;;4991380;28;20042;-79
2023/08/11 11:53:08;;;;;;;2.60;0.60;;;;;;;;;;4952960;28;20042;-79
2023/08/11 11:55:43;;;;;;;1.92;0.40;;;;;;;;;;4976554;28;20041;-80
2023/08/11 11:58:09;;;;;;;2.50;0.70;;;;;;;;;;4994116;28;20037;-80
2023/08/11 12:00:34;;;;;;;3.27;0.63;;;;;;;;;;5002821;28;20489;-80
2023/08/11 12:03:00;;;;;;;4.30;0.60;;;;;;;;;;4982535;28;21255;-81
2023/08/11 12:05:26;;;;;;;1.57;0.60;;;;;;;;;;4991665;28;20117;-80
2023/08/11 12:07:51;;;;;;;1.83;0.40;;;;;;;;;;4992640;28;20050;-80
2023/08/11 12:10:21;;;;;;;2.25;0.47;;;;;;;;;;5003290;28;20057;-79
2023/08/11 12:13:06;;;;;;;1.65;0.50;;;;;;;;;;4962554;28;20407;-79
2023/08/11 12:15:32;;;;;;;3.67;0.70;;;;;;;;;;4997895;28;20087;-80
2023/08/11 12:17:58;;;;;;;2.75;0.50;;;;;;;;;;5021354;28;20045;-79
2023/08/11 12:20:26;;;;;;;1.83;0.52;;;;;;;;;;4982275;28;20092;-79
2023/08/11 12:22:51;;;;;;;2.22;0.50;;;;;;;;;;4991927;28;20099;-79
2023/08/11 12:25:16;;;;;;;2.65;0.70;;;;;;;;;;5003703;28;20041;-79
2023/08/11 12:27:42;;;;;;;2.97;0.60;;;;;;;;;;4996801;28;20464;-78
2023/08/11 12:30:10;;;;;;;2.08;0.80;;;;;;;;;;4984744;28;20045;-79
2023/08/11 12:32:36;;;;;;;7.47;1.02;;;;;;;;;;4981066;28;20053;-80
2023/08/11 12:35:13;;;;;;;4.00;1.02;;;;;;;;;;4979485;28;20046;-79
2023/08/11 12:37:38;;;;;;;5.18;1.70;;;;;;;;;;4973220;28;20572;-79
2023/08/11 12:40:09;;;;;;;7.38;1.98;;;;;;;;;;4995975;28;20048;-79
2023/08/11 12:42:35;;;;;;;5.25;1.40;;;;;;;;;;5022892;28;20068;-79
2023/08/11 12:45:00;;;;;;;4.65;1.65;;;;;;;;;;4999863;28;20469;-79
2023/08/11 12:47:25;;;;;;;2.20;0.65;;;;;;;;;;5002773;28;20084;-79
2023/08/11 12:49:54;;;;;;;3.63;0.90;;;;;;;;;;4995771;28;20469;-78
2023/08/11 12:52:19;;;;;;;1.17;0.52;;;;;;;;;;4977425;28;20054;-78
2023/08/11 12:54:45;;;;;;;1.85;0.60;;;;;;;;;;4982453;28;20546;-79
2023/08/11 12:57:10;;;;;;;2.78;0.60;;;;;;;;;;4981608;28;20036;-79
2023/08/11 12:59:35;;;;;;;2.30;0.70;;;;;;;;;;4995687;28;20489;-79
2023/08/11 13:02:01;;;;;;;1.75;0.50;;;;;;;;;;4976276;28;20138;-79
2023/08/11 13:04:26;;;;;;;1.77;0.68;;;;;;;;;;4980268;28;20077;-79
2023/08/11 13:06:52;;;;;;;2.25;0.60;;;;;;;;;;4995507;28;20066;-79
2023/08/11 13:09:17;;;;;;;3.47;0.70;;;;;;;;;;4991685;28;20108;-79
2023/08/11 13:11:44;;;;;;;1.98;0.50;;;;;;;;;;4991577;28;20108;-79
2023/08/11 13:14:10;;;;;;;1.95;0.60;;;;;;;;;;4985778;28;20042;-79
2023/08/11 13:16:36;;;;;;;1.52;0.50;;;;;;;;;;4994069;28;20044;-79
2023/08/11 13:19:01;;;;;;;2.80;0.80;;;;;;;;;;4975032;28;20038;-79
2023/08/11 13:21:27;;;;;;;1.83;0.65;;;;;;;;;;4984544;28;20041;-79
2023/08/11 13:23:52;;;;;;;2.75;0.70;;;;;;;;;;4997703;28;20070;-78
2023/08/11 13:26:18;;;;;;;2.33;0.77;;;;;;;;;;4993515;28;20030;-79
2023/08/11 13:28:43;;;;;;;2.13;0.65;;;;;;;;;;4988380;28;20398;-79
2023/08/11 13:31:08;;;;;;;2.55;0.70;;;;;;;;;;4979290;28;20046;-78
2023/08/11 13:33:34;;;;;;;2.40;0.70;;;;;;;;;;4993329;28;20121;-79
2023/08/11 13:35:59;;;;;;;1.90;0.60;;;;;;;;;;4991031;28;20057;-79
2023/08/11 13:38:27;;;;;;;3.50;0.77;;;;;;;;;;4993824;28;20052;-79
2023/08/11 13:40:53;;;;;;;3.20;0.70;;;;;;;;;;4989602;28;20394;-79
2023/08/11 13:43:21;;;;;;;2.70;0.70;;;;;;;;;;4985001;28;20035;-80
2023/08/11 13:45:53;;;;;;;2.15;0.70;;;;;;;;;;4976347;28;20121;-79
2023/08/11 13:48:21;;;;;;;1.80;0.50;;;;;;;;;;4983041;28;20468;-80
2023/08/11 13:50:46;;;;;;;1.02;0.40;;;;;;;;;;4985770;28;20038;-80
2023/08/11 13:53:15;;;;;;;4.53;1.33;;;;;;;;;;4975398;28;20876;-80
2023/08/11 13:55:41;;;;;;;2.90;0.50;;;;;;;;;;4991033;28;20049;-80
2023/08/11 13:58:06;;;;;;;1.97;0.53;;;;;;;;;;4977792;28;20034;-81
2023/08/11 14:00:31;;;;;;;2.13;0.50;;;;;;;;;;4999806;28;20041;-81
2023/08/11 14:02:57;;;;;;;2.67;0.50;;;;;;;;;;4974597;28;20037;-80
2023/08/11 14:05:24;;;;;;;1.63;0.50;;;;;;;;;;4983141;28;20496;-79
2023/08/11 14:07:50;;;;;;;3.13;0.60;;;;;;;;;;4992323;28;20110;-78
2023/08/11 14:10:15;;;;;;;0.97;0.43;;;;;;;;;;4983650;28;20056;-78
2023/08/11 14:12:41;;;;;;;1.97;0.47;;;;;;;;;;4971671;28;20048;-78
2023/08/11 14:15:07;;;;;;;2.10;0.40;;;;;;;;;;4994240;28;20058;-80
2023/08/11 14:17:32;;;;;;;1.93;0.70;;;;;;;;;;4994085;28;20905;-80
2023/08/11 14:19:58;;;;;;;3.87;0.63;;;;;;;;;;4989720;28;20064;-79
2023/08/11 14:22:23;;;;;;;1.40;0.40;;;;;;;;;;4996781;28;20136;-80
2023/08/11 14:24:48;;;;;;;2.73;0.70;;;;;;;;;;4979538;28;20125;-79
2023/08/11 14:27:14;;;;;;;1.33;0.40;;;;;;;;;;4964080;28;20417;-80
2023/08/11 14:29:40;;;;;;;0.97;0.40;;;;;;;;;;4971726;28;20041;-79
2023/08/11 14:32:05;;;;;;;2.17;0.50;;;;;;;;;;4978737;28;20031;-79
2023/08/11 14:34:31;;;;;;;2.40;0.57;;;;;;;;;;4971284;28;20042;-79
2023/08/11 14:36:56;;;;;;;1.83;0.60;;;;;;;;;;4974308;28;20403;-79
2023/08/11 14:39:22;;;;;;;2.30;0.50;;;;;;;;;;4957686;28;20056;-79
2023/08/11 14:41:48;;;;;;;1.70;0.57;;;;;;;;;;4957634;28;20046;-80
2023/08/11 14:44:14;;;;;;;2.28;0.60;;;;;;;;;;4969286;28;20035;-79